Time;durP1;ratioP1;P1;durP2;ratioP2;P2;SDS_P1;SDS_P2;PMS_P1;PMS_P2;Temp;Humidity;BMP_temperature;BMP_pressure;BME280_temperature;BME280_humidity;BME280_pressure;Samples;Min_cycle;Max_cycle;Signal;HPM_P1;HPM_P2
2022/03/31 00:00:20;;;;;;;2.40;1.42;;;16.30;49.70;;;;;;5119788;28;20018;-66
2022/03/31 00:02:46;;;;;;;2.17;1.60;;;16.30;49.70;;;;;;5119711;28;20026;-67
2022/03/31 00:05:13;;;;;;;2.15;1.88;;;16.30;49.60;;;;;;5119718;28;20051;-67
2022/03/31 00:07:50;;;;;;;2.03;1.60;;;16.30;49.70;;;;;;5119704;28;20080;-67
2022/03/31 00:10:20;;;;;;;2.20;1.50;;;16.30;49.60;;;;;;5119682;28;20343;-66
2022/03/31 00:12:47;;;;;;;2.13;1.50;;;16.30;49.70;;;;;;5119722;28;20077;-67
2022/03/31 00:15:13;;;;;;;1.63;1.30;;;16.30;49.70;;;;;;5119516;28;20031;-67
2022/03/31 00:17:38;;;;;;;1.70;1.35;;;16.30;49.70;;;;;;5119649;28;20035;-66
2022/03/31 00:20:05;;;;;;;1.65;1.17;;;16.30;49.70;;;;;;5119637;28;20023;-66
2022/03/31 00:22:30;;;;;;;1.60;1.50;;;16.30;49.70;;;;;;5119537;28;20083;-67
2022/03/31 00:24:56;;;;;;;1.38;1.27;;;16.30;49.60;;;;;;5119558;28;20332;-66
2022/03/31 00:27:22;;;;;;;1.60;1.42;;;16.30;49.70;;;;;;5119503;28;20231;-67
2022/03/31 00:29:47;;;;;;;1.92;1.33;;;16.30;49.60;;;;;;5119417;28;20329;-66
2022/03/31 00:32:13;;;;;;;2.20;1.63;;;16.30;49.70;;;;;;5119475;28;20032;-67
2022/03/31 00:34:39;;;;;;;1.95;1.63;;;16.30;49.60;;;;;;5118050;28;20083;-66
2022/03/31 00:37:05;;;;;;;1.50;1.40;;;16.30;49.70;;;;;;5119369;28;20238;-66
2022/03/31 00:39:34;;;;;;;1.67;1.58;;;16.30;49.60;;;;;;5119389;28;20245;-66
2022/03/31 00:42:02;;;;;;;1.50;1.40;;;16.30;49.70;;;;;;5119424;28;20015;-68
2022/03/31 00:44:28;;;;;;;1.73;1.42;;;16.30;49.70;;;;;;5121146;28;20139;-67
2022/03/31 00:46:55;;;;;;;2.72;1.30;;;16.30;49.60;;;;;;5122947;28;20062;-67
2022/03/31 00:49:22;;;;;;;1.80;1.27;;;16.30;49.60;;;;;;5122959;28;20561;-67
2022/03/31 00:51:49;;;;;;;1.50;1.35;;;16.30;49.70;;;;;;5122733;28;20138;-67
2022/03/31 00:54:20;;;;;;;1.85;1.65;;;16.20;49.60;;;;;;5122864;28;20021;-67
2022/03/31 00:56:49;;;;;;;1.60;1.13;;;16.30;49.70;;;;;;5122818;28;20086;-66
2022/03/31 00:59:15;;;;;;;1.48;1.25;;;16.30;49.70;;;;;;5122861;28;20008;-67
2022/03/31 01:01:42;;;;;;;1.83;1.60;;;16.30;49.70;;;;;;5121355;28;20050;-67
2022/03/31 01:04:09;;;;;;;2.08;1.40;;;16.30;49.70;;;;;;5122632;28;20064;-66
2022/03/31 01:06:35;;;;;;;1.80;1.10;;;16.30;49.70;;;;;;5122639;28;20070;-67
2022/03/31 01:09:02;;;;;;;2.22;1.65;;;16.30;49.70;;;;;;5122492;28;20080;-68
2022/03/31 01:11:32;;;;;;;2.60;1.52;;;16.30;49.70;;;;;;5122520;28;20054;-68
2022/03/31 01:13:58;;;;;;;1.45;1.33;;;16.30;49.60;;;;;;5122464;28;20205;-66
2022/03/31 01:16:25;;;;;;;1.83;1.45;;;16.30;49.70;;;;;;5122303;28;20024;-67
2022/03/31 01:18:51;;;;;;;1.38;1.27;;;16.30;49.70;;;;;;5122366;28;20020;-67
2022/03/31 01:21:18;;;;;;;1.60;1.50;;;16.20;49.70;;;;;;5122329;28;20189;-67
2022/03/31 01:23:46;;;;;;;1.60;1.40;;;16.30;49.70;;;;;;5122266;28;20028;-66
2022/03/31 01:26:12;;;;;;;;;;;16.30;49.70;;;;;;5122720;28;20031;-68
2022/03/31 01:28:42;;;;;;;1.55;1.30;;;16.30;49.70;;;;;;5120961;28;19999;-67
2022/03/31 01:31:09;;;;;;;1.52;1.30;;;16.20;49.60;;;;;;5122141;28;20027;-67
2022/03/31 01:33:37;;;;;;;1.85;1.13;;;16.20;49.70;;;;;;5122130;28;20047;-67
2022/03/31 01:36:04;;;;;;;1.20;1.10;;;16.20;49.70;;;;;;5121980;28;20317;-67
2022/03/31 01:38:31;;;;;;;1.63;1.27;;;16.20;49.70;;;;;;5122041;28;20035;-68
2022/03/31 01:40:57;;;;;;;1.40;1.20;;;16.30;49.70;;;;;;5121973;28;20030;-67
2022/03/31 01:43:23;;;;;;;1.92;1.30;;;16.20;49.70;;;;;;5121790;28;20015;-67
2022/03/31 01:45:49;;;;;;;1.80;1.50;;;16.20;49.70;;;;;;5121782;28;20054;-67
2022/03/31 01:48:16;;;;;;;1.30;1.20;;;16.20;49.70;;;;;;5120408;28;20044;-67
2022/03/31 01:50:43;;;;;;;1.63;1.40;;;16.20;49.70;;;;;;5121589;28;20050;-68
2022/03/31 01:53:09;;;;;;;1.35;1.25;;;16.20;49.60;;;;;;5121661;28;20030;-67
2022/03/31 01:55:35;;;;;;;1.38;1.17;;;16.20;49.70;;;;;;5120376;28;20027;-67
2022/03/31 01:58:01;;;;;;;2.17;1.45;;;16.20;49.70;;;;;;5121597;28;20087;-66
2022/03/31 02:00:26;;;;;;;2.50;1.45;;;16.30;49.70;;;;;;5121608;28;20034;-68
2022/03/31 02:02:52;;;;;;;2.15;1.50;;;16.20;49.70;;;;;;5120119;28;20019;-67
2022/03/31 02:05:18;;;;;;;3.35;1.70;;;16.20;49.70;;;;;;5121438;28;20027;-67
2022/03/31 02:07:44;;;;;;;1.48;1.30;;;16.20;49.70;;;;;;5121333;28;20023;-67
2022/03/31 02:10:13;;;;;;;1.40;1.30;;;16.20;49.70;;;;;;5121267;28;20020;-67
2022/03/31 02:12:40;;;;;;;3.38;1.70;;;16.20;49.70;;;;;;5121228;28;20051;-66
2022/03/31 02:15:08;;;;;;;1.30;1.20;;;16.20;49.70;;;;;;5121172;28;20030;-67
2022/03/31 02:17:33;;;;;;;2.03;1.48;;;16.20;49.70;;;;;;5121083;27;20031;-66
2022/03/31 02:19:59;;;;;;;1.38;1.27;;;16.20;49.70;;;;;;5121069;28;20024;-67
2022/03/31 02:22:25;;;;;;;1.50;1.40;;;16.20;49.70;;;;;;5121079;28;20050;-66
2022/03/31 02:24:50;;;;;;;1.20;1.10;;;16.20;49.70;;;;;;5120898;28;20024;-67
2022/03/31 02:27:16;;;;;;;1.55;1.42;;;16.20;49.70;;;;;;5120872;28;20023;-68
2022/03/31 02:29:42;;;;;;;1.48;1.38;;;16.20;49.70;;;;;;5120785;28;20029;-66
2022/03/31 02:32:08;;;;;;;1.52;1.30;;;16.20;49.70;;;;;;5120833;28;20035;-66
2022/03/31 02:34:35;;;;;;;1.92;1.55;;;16.20;49.70;;;;;;5120793;28;20030;-66
2022/03/31 02:37:02;;;;;;;2.50;1.60;;;16.20;49.70;;;;;;5120608;28;20020;-66
2022/03/31 02:39:29;;;;;;;1.55;1.45;;;16.20;49.70;;;;;;5120640;28;20025;-68
2022/03/31 02:41:57;;;;;;;2.25;1.67;;;16.20;49.70;;;;;;5120618;28;20083;-67
2022/03/31 02:44:24;;;;;;;1.20;1.00;;;16.20;49.70;;;;;;5120630;28;20019;-67
2022/03/31 02:46:51;;;;;;;2.25;1.70;;;16.20;49.60;;;;;;5120367;28;20038;-67
2022/03/31 02:49:17;;;;;;;1.48;1.38;;;16.20;49.70;;;;;;5120422;28;20382;-67
2022/03/31 02:51:43;;;;;;;1.73;1.38;;;16.20;49.70;;;;;;5120302;28;20059;-68
2022/03/31 02:56:53;;;;;;;1.50;1.40;;;16.20;49.70;;;;;;5120361;28;20077;-66
2022/03/31 02:59:20;;;;;;;1.75;1.42;;;16.20;50.30;;;;;;5120284;28;20082;-66
2022/03/31 03:01:45;;;;;;;1.35;1.25;;;16.20;49.70;;;;;;5120347;28;20023;-67
2022/03/31 03:04:11;;;;;;;1.52;1.42;;;16.20;49.70;;;;;;5118839;28;20102;-66
2022/03/31 03:06:38;;;;;;;1.42;1.30;;;16.20;49.70;;;;;;5119858;28;20036;-66
2022/03/31 03:09:05;;;;;;;2.05;1.73;;;16.20;49.70;;;;;;5120193;28;20335;-65
2022/03/31 03:11:31;;;;;;;1.40;1.30;;;16.20;49.70;;;;;;5120146;28;20122;-65
2022/03/31 03:13:56;;;;;;;3.08;1.65;;;16.20;49.70;;;;;;5120152;28;20032;-66
2022/03/31 03:16:25;;;;;;;1.50;1.23;;;16.10;49.70;;;;;;5119920;28;20228;-66
2022/03/31 03:18:53;;;;;;;1.50;1.23;;;16.20;49.70;;;;;;5120112;28;20012;-67
2022/03/31 03:21:20;;;;;;;2.55;1.40;;;16.10;49.70;;;;;;5119917;28;20040;-67
2022/03/31 03:23:46;;;;;;;1.73;1.48;;;16.10;49.70;;;;;;5119693;28;20028;-67
2022/03/31 03:26:12;;;;;;;1.63;1.17;;;16.20;49.70;;;;;;5119994;28;20188;-68
2022/03/31 03:28:38;;;;;;;1.73;1.25;;;16.10;49.60;;;;;;5118563;28;20292;-67
2022/03/31 03:31:05;;;;;;;1.95;1.48;;;16.10;49.70;;;;;;5119889;28;20087;-66
2022/03/31 03:33:32;;;;;;;1.40;1.20;;;16.10;49.70;;;;;;5119770;28;20019;-66
2022/03/31 03:35:58;;;;;;;1.60;1.50;;;16.10;49.70;;;;;;5119695;28;20038;-66
2022/03/31 03:38:24;;;;;;;1.40;1.30;;;16.20;49.80;;;;;;5119813;28;20022;-67
2022/03/31 03:40:50;;;;;;;1.27;1.15;;;16.10;49.70;;;;;;5119782;28;20185;-67
2022/03/31 03:43:15;;;;;;;1.52;1.42;;;16.10;49.70;;;;;;5118452;28;20058;-67
2022/03/31 03:45:42;;;;;;;2.42;1.73;;;16.10;49.70;;;;;;5119683;28;20083;-66
2022/03/31 03:48:10;;;;;;;2.70;1.70;;;16.10;49.70;;;;;;5119743;28;20027;-67
2022/03/31 03:50:36;;;;;;;2.15;1.40;;;16.10;49.70;;;;;;5119601;28;20055;-67
2022/03/31 03:53:03;;;;;;;1.30;1.20;;;16.10;49.70;;;;;;5119651;28;20362;-66
2022/03/31 03:55:34;;;;;;;1.65;1.30;;;16.10;49.70;;;;;;5119768;28;20038;-67
2022/03/31 03:58:00;;;;;;;1.83;1.55;;;16.10;49.70;;;;;;5119641;28;20560;-67
2022/03/31 04:00:27;;;;;;;1.05;0.98;;;16.10;49.70;;;;;;5119651;28;20501;-67
2022/03/31 04:02:53;;;;;;;1.10;1.00;;;16.10;49.70;;;;;;5119580;28;20024;-66
2022/03/31 04:05:20;;;;;;;1.17;1.08;;;16.10;49.70;;;;;;5119581;28;20030;-67
2022/03/31 04:07:46;;;;;;;1.40;1.30;;;16.10;49.70;;;;;;5119599;28;20027;-67
2022/03/31 04:10:11;;;;;;;2.38;1.55;;;16.10;49.70;;;;;;5119533;28;20529;-67
2022/03/31 04:12:39;;;;;;;1.98;1.40;;;16.10;49.70;;;;;;5119493;28;20024;-67
2022/03/31 04:15:06;;;;;;;1.40;1.20;;;16.10;49.70;;;;;;5119359;28;20015;-66
2022/03/31 04:17:33;;;;;;;1.05;0.93;;;16.10;49.70;;;;;;5119373;28;20208;-67
2022/03/31 04:19:59;;;;;;;1.45;1.30;;;16.10;49.70;;;;;;5122124;28;20072;-67
2022/03/31 04:22:25;;;;;;;2.40;1.55;;;16.10;49.70;;;;;;5123303;28;20023;-67
2022/03/31 04:24:51;;;;;;;1.80;1.33;;;16.10;49.70;;;;;;5123255;28;20095;-66
2022/03/31 04:27:16;;;;;;;1.65;1.33;;;16.10;49.70;;;;;;5123257;28;20031;-67
2022/03/31 04:29:42;;;;;;;1.40;1.27;;;16.10;49.70;;;;;;5123220;28;20392;-66
2022/03/31 04:32:09;;;;;;;1.38;1.25;;;16.10;49.70;;;;;;5123218;27;20374;-67
2022/03/31 04:34:35;;;;;;;1.30;1.20;;;16.10;49.70;;;;;;5123057;28;20277;-66
2022/03/31 04:37:02;;;;;;;1.33;1.20;;;16.10;49.70;;;;;;5122923;28;20261;-66
2022/03/31 04:39:28;;;;;;;1.55;1.42;;;16.10;49.70;;;;;;5123060;28;20027;-66
2022/03/31 04:41:54;;;;;;;1.20;1.10;;;16.10;49.70;;;;;;5123016;27;20080;-66
2022/03/31 04:44:19;;;;;;;1.52;1.30;;;16.10;49.70;;;;;;5122860;28;20328;-68
2022/03/31 04:46:46;;;;;;;3.00;1.63;;;16.10;49.70;;;;;;5122861;28;20016;-68
2022/03/31 04:49:12;;;;;;;1.95;1.45;;;16.10;49.70;;;;;;5122845;28;20039;-68
2022/03/31 04:51:38;;;;;;;1.65;1.52;;;16.10;49.70;;;;;;5122622;28;20110;-67
2022/03/31 04:54:04;;;;;;;1.40;1.30;;;16.10;49.70;;;;;;5122760;28;20355;-67
2022/03/31 04:56:30;;;;;;;2.47;1.52;;;16.10;50.30;;;;;;5122625;28;20034;-68
2022/03/31 04:58:56;;;;;;;1.55;1.38;;;16.10;49.70;;;;;;5122672;28;20034;-67
2022/03/31 05:01:23;;;;;;;2.03;1.20;;;16.10;49.70;;;;;;5122504;28;20027;-66
2022/03/31 05:03:49;;;;;;;1.50;1.40;;;16.10;49.70;;;;;;5122588;28;20023;-66
2022/03/31 05:06:16;;;;;;;1.50;1.40;;;16.10;49.70;;;;;;5122530;28;20331;-68
2022/03/31 05:08:42;;;;;;;1.98;1.45;;;16.00;49.70;;;;;;5122489;28;20034;-67
2022/03/31 05:11:09;;;;;;;3.03;1.48;;;16.00;49.70;;;;;;5122441;28;20526;-67
2022/03/31 05:13:34;;;;;;;1.50;1.23;;;16.00;49.70;;;;;;5122379;28;20031;-68
2022/03/31 05:16:00;;;;;;;2.42;1.70;;;16.00;49.70;;;;;;5122173;28;20555;-67
2022/03/31 05:18:26;;;;;;;1.60;1.27;;;16.10;49.70;;;;;;5122268;28;20028;-67
2022/03/31 05:20:52;;;;;;;2.05;1.63;;;16.00;49.70;;;;;;5122247;28;20027;-67
2022/03/31 05:23:19;;;;;;;1.63;1.52;;;16.00;49.70;;;;;;5122095;28;20019;-67
2022/03/31 05:25:44;;;;;;;1.52;1.30;;;16.00;49.70;;;;;;5120886;28;20020;-66
2022/03/31 05:28:11;;;;;;;2.95;1.48;;;16.00;49.70;;;;;;5122063;28;20193;-66
2022/03/31 05:30:37;;;;;;;1.40;1.30;;;16.00;49.70;;;;;;5122022;28;20027;-67
2022/03/31 05:33:03;;;;;;;1.38;1.20;;;16.00;49.70;;;;;;5121955;28;20027;-67
2022/03/31 05:35:29;;;;;;;1.52;1.23;;;16.10;49.70;;;;;;5121880;28;20099;-67
2022/03/31 05:37:56;;;;;;;2.35;1.38;;;16.00;49.60;;;;;;5121901;28;20020;-68
2022/03/31 05:40:22;;;;;;;1.38;1.10;;;16.00;49.60;;;;;;5121847;28;20023;-67
2022/03/31 05:42:51;;;;;;;2.15;1.48;;;16.00;49.70;;;;;;5121815;28;20020;-67
2022/03/31 05:45:17;;;;;;;2.08;1.30;;;16.00;49.70;;;;;;5120498;28;20386;-66
2022/03/31 05:47:44;;;;;;;1.60;1.48;;;16.00;49.60;;;;;;5121623;28;20023;-67
2022/03/31 05:50:11;;;;;;;1.90;1.40;;;16.00;49.60;;;;;;5121496;28;20062;-66
2022/03/31 05:52:42;;;;;;;1.67;1.48;;;16.10;49.70;;;;;;5121573;28;20015;-66
2022/03/31 05:55:13;;;;;;;1.20;1.10;;;16.00;49.60;;;;;;5121633;27;20023;-66
2022/03/31 05:57:39;;;;;;;1.40;1.20;;;16.00;49.60;;;;;;5121471;28;20020;-68
2022/03/31 06:00:09;;;;;;;1.35;1.23;;;16.00;49.60;;;;;;5121503;28;20022;-66
2022/03/31 06:02:34;;;;;;;1.45;1.35;;;16.00;49.70;;;;;;5121466;27;20015;-66
2022/03/31 06:05:00;;;;;;;1.00;1.00;;;16.00;49.70;;;;;;5121357;28;20075;-66
2022/03/31 06:07:26;;;;;;;1.50;1.30;;;16.00;49.70;;;;;;5121383;28;20035;-67
2022/03/31 06:09:51;;;;;;;1.30;1.20;;;16.00;49.60;;;;;;5121237;28;20094;-67
2022/03/31 06:12:17;;;;;;;1.00;0.90;;;16.00;49.60;;;;;;5121231;28;20072;-66
2022/03/31 06:14:43;;;;;;;1.73;1.30;;;16.00;49.60;;;;;;5121148;28;20095;-66
2022/03/31 06:17:09;;;;;;;1.42;1.33;;;16.00;49.70;;;;;;5121090;28;20051;-66
2022/03/31 06:19:35;;;;;;;1.40;1.23;;;16.00;49.60;;;;;;5121101;28;20019;-67
2022/03/31 06:22:01;;;;;;;1.63;1.35;;;16.00;49.60;;;;;;5119648;28;20019;-66
2022/03/31 06:24:27;;;;;;;1.55;1.45;;;16.00;49.70;;;;;;5121026;27;20294;-66
2022/03/31 06:26:52;;;;;;;1.52;1.27;;;16.00;49.70;;;;;;5120931;28;20028;-67
2022/03/31 06:29:18;;;;;;;1.48;1.15;;;16.00;49.70;;;;;;5119497;28;20237;-66
2022/03/31 06:31:44;;;;;;;1.67;1.38;;;16.00;49.70;;;;;;5120709;28;20185;-67
2022/03/31 06:34:10;;;;;;;1.20;0.95;;;16.00;49.70;;;;;;5120798;28;20200;-67
2022/03/31 06:36:36;;;;;;;1.63;1.33;;;16.00;49.70;;;;;;5120680;28;20292;-67
2022/03/31 06:39:03;;;;;;;1.90;1.60;;;16.00;49.70;;;;;;5120703;28;20055;-67
2022/03/31 06:41:29;;;;;;;2.33;1.52;;;16.00;49.70;;;;;;5119882;28;20045;-66
2022/03/31 06:43:54;;;;;;;1.27;1.15;;;16.00;49.70;;;;;;5120611;28;20019;-66
2022/03/31 06:46:20;;;;;;;1.30;1.20;;;16.00;49.70;;;;;;5120551;28;20019;-66
2022/03/31 06:48:47;;;;;;;1.10;1.00;;;16.00;49.70;;;;;;5120578;28;20027;-66
2022/03/31 06:51:14;;;;;;;1.85;1.50;;;16.00;49.70;;;;;;5120310;28;20069;-66
2022/03/31 06:53:41;;;;;;;1.95;1.42;;;16.00;49.70;;;;;;5120412;28;20015;-67
2022/03/31 06:56:08;;;;;;;2.03;1.30;;;16.00;49.80;;;;;;5120319;28;20040;-66
2022/03/31 06:58:34;;;;;;;1.50;1.40;;;16.00;49.70;;;;;;5120300;28;20042;-66
2022/03/31 07:01:01;;;;;;;3.05;1.65;;;16.00;49.70;;;;;;5120276;28;20035;-66
2022/03/31 07:03:27;;;;;;;1.50;1.40;;;16.00;49.70;;;;;;5118936;28;20223;-67
2022/03/31 07:05:54;;;;;;;1.58;1.30;;;16.00;49.80;;;;;;5120199;28;20115;-68
2022/03/31 07:08:20;;;;;;;1.42;1.30;;;16.00;49.80;;;;;;5120116;28;20203;-67
2022/03/31 07:10:46;;;;;;;1.63;1.38;;;16.00;49.70;;;;;;5120188;28;20023;-68
2022/03/31 07:13:12;;;;;;;1.40;1.30;;;16.00;49.70;;;;;;5120125;28;20027;-67
2022/03/31 07:15:38;;;;;;;1.35;1.25;;;16.00;49.70;;;;;;5119994;28;20038;-68
2022/03/31 07:18:05;;;;;;;2.08;1.55;;;16.00;49.80;;;;;;5120036;28;20020;-67
2022/03/31 07:20:32;;;;;;;1.48;1.38;;;16.00;49.70;;;;;;5120029;28;20288;-67
2022/03/31 07:22:58;;;;;;;2.00;1.52;;;16.00;49.70;;;;;;5119980;28;20019;-66
2022/03/31 07:25:23;;;;;;;1.58;1.38;;;16.00;49.70;;;;;;5119924;28;20027;-67
2022/03/31 07:27:50;;;;;;;2.17;1.70;;;16.00;49.70;;;;;;5119945;28;20075;-67
2022/03/31 07:30:18;;;;;;;2.22;1.58;;;16.00;49.70;;;;;;5119874;28;20028;-69
2022/03/31 07:32:48;;;;;;;1.23;1.13;;;16.00;49.70;;;;;;5119892;28;20027;-67
2022/03/31 07:35:14;;;;;;;1.48;1.27;;;16.00;49.70;;;;;;5119679;28;20207;-66
2022/03/31 07:37:39;;;;;;;1.52;1.42;;;16.00;49.70;;;;;;5119839;28;20084;-68
2022/03/31 07:40:06;;;;;;;1.65;1.55;;;16.00;49.70;;;;;;5119703;28;20027;-67
2022/03/31 07:42:31;;;;;;;1.50;1.40;;;16.00;49.80;;;;;;5119815;28;20043;-67
2022/03/31 07:44:57;;;;;;;1.83;1.40;;;16.00;49.70;;;;;;5119764;28;20046;-67
2022/03/31 07:47:23;;;;;;;2.30;1.50;;;16.00;49.70;;;;;;5119715;28;20089;-67
2022/03/31 07:49:49;;;;;;;2.35;1.38;;;16.00;49.70;;;;;;5119699;28;20295;-68
2022/03/31 07:52:16;;;;;;;1.42;1.30;;;16.00;49.70;;;;;;5119653;28;20032;-67
2022/03/31 07:54:42;;;;;;;1.58;1.42;;;16.00;49.70;;;;;;5123812;28;20023;-67
2022/03/31 07:57:08;;;;;;;1.60;1.23;;;16.00;49.70;;;;;;5123774;28;20031;-67
2022/03/31 07:59:35;;;;;;;1.42;1.30;;;16.00;50.30;;;;;;5122496;28;20020;-68
2022/03/31 08:02:01;;;;;;;1.30;1.20;;;16.00;49.70;;;;;;5123684;28;20250;-68
2022/03/31 08:04:30;;;;;;;1.48;1.23;;;16.00;49.70;;;;;;5123726;28;20051;-66
2022/03/31 08:06:56;;;;;;;1.88;1.40;;;16.00;49.70;;;;;;5123639;28;20023;-66
2022/03/31 08:09:21;;;;;;;1.42;1.30;;;16.00;49.70;;;;;;5123618;28;20091;-66
2022/03/31 08:11:51;;;;;;;1.98;1.20;;;16.00;49.70;;;;;;5123567;28;20051;-67
2022/03/31 08:14:21;;;;;;;1.35;1.10;;;16.00;49.70;;;;;;5123547;27;20131;-66
2022/03/31 08:16:48;;;;;;;1.83;1.48;;;15.90;49.70;;;;;;5123441;28;20035;-67
2022/03/31 08:19:15;;;;;;;1.77;1.48;;;16.00;49.80;;;;;;5123440;27;20068;-66
2022/03/31 08:21:42;;;;;;;1.52;1.20;;;16.00;49.70;;;;;;5123327;28;20437;-67
2022/03/31 08:24:09;;;;;;;1.38;1.27;;;16.00;49.70;;;;;;5123317;28;20027;-66
2022/03/31 08:26:35;;;;;;;2.35;1.67;;;16.00;49.70;;;;;;5123282;28;20060;-66
2022/03/31 08:29:01;;;;;;;1.45;1.30;;;16.00;49.70;;;;;;5123208;28;20031;-66
2022/03/31 08:31:27;;;;;;;1.50;1.40;;;16.00;49.70;;;;;;5123171;27;20400;-66
2022/03/31 08:33:54;;;;;;;1.23;1.13;;;16.00;49.70;;;;;;5121791;28;20252;-67
2022/03/31 08:36:20;;;;;;;1.60;1.30;;;16.00;49.70;;;;;;5123055;28;20016;-67
2022/03/31 08:38:45;;;;;;;2.60;1.30;;;16.00;49.70;;;;;;5123053;28;20239;-67
2022/03/31 08:41:13;;;;;;;1.48;1.38;;;16.00;49.70;;;;;;5122985;28;20027;-66
2022/03/31 08:43:42;;;;;;;1.45;1.30;;;16.00;49.70;;;;;;5122934;28;20340;-66
2022/03/31 08:46:10;;;;;;;1.65;1.20;;;16.00;49.70;;;;;;5122904;28;20031;-66
2022/03/31 08:48:37;;;;;;;1.93;1.40;;;16.00;49.70;;;;;;5122920;27;20020;-68
2022/03/31 08:51:04;;;;;;;1.45;1.35;;;16.00;49.70;;;;;;5122647;28;20043;-67
2022/03/31 08:53:31;;;;;;;1.38;1.20;;;16.00;49.70;;;;;;5122754;28;20078;-67
2022/03/31 08:55:57;;;;;;;1.67;1.58;;;16.00;49.70;;;;;;5122643;28;20137;-66
2022/03/31 08:58:23;;;;;;;1.40;1.30;;;16.00;49.70;;;;;;5122597;28;20433;-67
2022/03/31 09:00:49;;;;;;;2.03;1.40;;;16.00;49.70;;;;;;5122447;28;20023;-67
2022/03/31 09:03:16;;;;;;;1.58;1.42;;;16.00;49.70;;;;;;5122494;28;20012;-66
2022/03/31 09:05:52;;;;;;;1.67;1.40;;;16.00;49.70;;;;;;5121832;28;20343;-67
2022/03/31 09:08:18;;;;;;;1.77;1.58;;;16.00;49.70;;;;;;5122508;28;20068;-66
2022/03/31 09:10:47;;;;;;;3.15;1.33;;;16.00;49.70;;;;;;5122336;28;20023;-68
2022/03/31 09:13:29;;;;;;;2.15;1.20;;;16.00;49.70;;;;;;5122335;28;20030;-67
2022/03/31 09:15:57;;;;;;;1.63;1.20;;;16.00;49.70;;;;;;5122194;28;20024;-66
2022/03/31 09:18:25;;;;;;;1.77;1.20;;;16.00;49.80;;;;;;5122286;28;20347;-65
2022/03/31 09:20:54;;;;;;;1.98;1.13;;;16.00;49.80;;;;;;5122066;28;20378;-65
2022/03/31 09:23:25;;;;;;;2.00;1.40;;;16.00;49.80;;;;;;5122192;28;20023;-67
2022/03/31 09:25:51;;;;;;;1.60;1.38;;;15.90;49.70;;;;;;5122154;28;20020;-66
2022/03/31 09:28:19;;;;;;;1.40;1.30;;;16.00;49.80;;;;;;5122077;28;20565;-68
2022/03/31 09:30:49;;;;;;;1.63;1.40;;;16.00;49.70;;;;;;5121983;28;20229;-65
2022/03/31 09:33:37;;;;;;;1.38;1.27;;;16.00;49.80;;;;;;5121955;28;20030;-66
2022/03/31 09:36:07;;;;;;;1.38;1.27;;;15.90;49.70;;;;;;5121881;27;20051;-67
2022/03/31 09:38:38;;;;;;;1.50;1.40;;;15.90;49.80;;;;;;5121907;28;20072;-67
2022/03/31 09:41:23;;;;;;;2.17;1.23;;;16.00;49.70;;;;;;5121800;28;20032;-66
2022/03/31 09:43:51;;;;;;;1.67;1.42;;;16.00;49.80;;;;;;5121796;28;20028;-67
2022/03/31 09:46:23;;;;;;;2.17;1.15;;;16.00;49.70;;;;;;5121757;28;20080;-66
2022/03/31 09:48:49;;;;;;;1.30;1.20;;;15.90;49.70;;;;;;5121704;28;20031;-68
2022/03/31 09:51:15;;;;;;;2.15;1.55;;;16.00;49.80;;;;;;5121415;28;20067;-66
2022/03/31 09:53:41;;;;;;;1.65;1.35;;;16.00;49.80;;;;;;5121549;28;20027;-65
2022/03/31 09:56:08;;;;;;;2.03;1.73;;;16.00;49.80;;;;;;5121480;28;20099;-67
2022/03/31 09:58:38;;;;;;;1.98;1.20;;;15.90;49.80;;;;;;5121548;28;20086;-66
2022/03/31 10:01:05;;;;;;;3.00;1.40;;;16.00;49.80;;;;;;5121499;27;20253;-67
2022/03/31 10:03:32;;;;;;;1.98;1.60;;;16.00;49.80;;;;;;5121324;28;20073;-66
2022/03/31 10:05:58;;;;;;;2.10;1.67;;;16.00;49.80;;;;;;5119983;28;20089;-66
2022/03/31 10:08:25;;;;;;;1.80;1.33;;;15.90;49.80;;;;;;5121329;28;20015;-66
2022/03/31 10:10:51;;;;;;;1.52;1.35;;;16.00;49.80;;;;;;5121235;28;20084;-66
2022/03/31 10:13:32;;;;;;;1.73;1.25;;;15.90;49.80;;;;;;5121168;28;20062;-67
2022/03/31 10:16:06;;;;;;;1.20;1.10;;;15.90;49.80;;;;;;5120526;28;20031;-66
2022/03/31 10:18:32;;;;;;;1.25;1.15;;;15.90;49.80;;;;;;5120875;28;20357;-67
2022/03/31 10:21:00;;;;;;;1.58;1.40;;;15.90;49.80;;;;;;5121030;28;20032;-67
2022/03/31 10:26:32;;;;;;;1.55;1.38;;;15.90;49.80;;;;;;5120890;28;20169;-66
2022/03/31 10:29:01;;;;;;;1.53;1.37;;;15.90;49.80;;;;;;5119730;28;20042;-66
2022/03/31 10:31:37;;;;;;;2.13;1.20;;;15.90;49.80;;;;;;5120911;28;20054;-67
2022/03/31 10:34:04;;;;;;;2.80;1.45;;;15.90;49.80;;;;;;5120803;28;20232;-66
2022/03/31 10:36:41;;;;;;;2.42;1.48;;;15.90;49.90;;;;;;5121027;28;20315;-68
2022/03/31 10:39:22;;;;;;;1.52;1.35;;;15.90;49.90;;;;;;5076832;28;20991;-68
2022/03/31 10:42:01;;;;;;;1.83;1.30;;;15.90;49.80;;;;;;5076666;28;20040;-66
2022/03/31 10:44:27;;;;;;;1.67;1.50;;;15.90;49.80;;;;;;5075255;28;20123;-67
2022/03/31 10:47:04;;;;;;;1.67;1.30;;;15.90;49.80;;;;;;5076564;28;20028;-66
2022/03/31 10:49:31;;;;;;;2.00;1.35;;;15.90;49.80;;;;;;5076486;28;20012;-67
2022/03/31 10:51:58;;;;;;;1.63;1.40;;;15.90;49.80;;;;;;5076468;28;20016;-67
2022/03/31 10:54:26;;;;;;;1.83;1.42;;;15.90;49.80;;;;;;5076413;28;20024;-67
2022/03/31 10:57:12;;;;;;;1.60;1.33;;;15.90;49.80;;;;;;5076253;28;20027;-66
2022/03/31 10:59:39;;;;;;;1.88;1.60;;;15.90;49.90;;;;;;5076281;28;20021;-68
2022/03/31 11:02:17;;;;;;;1.65;1.50;;;15.90;49.90;;;;;;5076252;28;20017;-67
2022/03/31 11:05:01;;;;;;;1.42;1.10;;;15.90;49.80;;;;;;5076261;28;20024;-68
2022/03/31 11:07:27;;;;;;;1.40;1.30;;;15.90;49.90;;;;;;5074935;28;20020;-67
2022/03/31 11:10:07;;;;;;;2.22;1.50;;;15.90;49.90;;;;;;5076053;28;20031;-66
2022/03/31 11:12:35;;;;;;;1.67;1.35;;;15.90;49.80;;;;;;5076073;28;20039;-67
2022/03/31 11:15:04;;;;;;;2.03;1.83;;;15.90;49.90;;;;;;5075842;28;20100;-66
2022/03/31 11:17:30;;;;;;;2.25;1.30;;;15.90;49.80;;;;;;5075914;28;20032;-67
2022/03/31 11:19:57;;;;;;;1.60;1.10;;;15.90;50.40;;;;;;5075675;28;20044;-66
2022/03/31 11:22:28;;;;;;;1.52;1.30;;;15.90;49.80;;;;;;5075841;28;20258;-67
2022/03/31 11:24:56;;;;;;;1.35;1.25;;;15.90;49.80;;;;;;5075800;28;20092;-67
2022/03/31 11:27:39;;;;;;;2.10;1.48;;;15.90;49.80;;;;;;5074397;28;20312;-66
2022/03/31 11:30:10;;;;;;;1.40;1.27;;;15.90;49.90;;;;;;5075733;28;20044;-67
2022/03/31 11:32:36;;;;;;;1.70;1.60;;;15.90;49.80;;;;;;5075589;28;20051;-66
2022/03/31 11:35:15;;;;;;;1.83;1.30;;;15.90;49.80;;;;;;5075727;28;20045;-67
2022/03/31 11:38:01;;;;;;;1.80;1.35;;;15.90;49.90;;;;;;5075345;28;20045;-66
2022/03/31 11:40:40;;;;;;;1.77;1.50;;;15.90;49.90;;;;;;5075445;28;20048;-67
2022/03/31 11:43:08;;;;;;;1.52;1.20;;;15.90;49.80;;;;;;5075410;28;20016;-68
2022/03/31 11:45:38;;;;;;;1.73;1.52;;;15.90;49.90;;;;;;5075331;28;20051;-67
2022/03/31 11:48:13;;;;;;;1.60;1.25;;;15.90;49.90;;;;;;5075239;28;20029;-67
2022/03/31 11:50:54;;;;;;;2.10;1.42;;;15.90;49.90;;;;;;5061698;28;20044;-66
2022/03/31 11:53:41;;;;;;;1.27;1.17;;;15.90;49.90;;;;;;5061938;28;20347;-67
2022/03/31 11:56:08;;;;;;;1.55;1.45;;;15.90;49.90;;;;;;5061994;28;20032;-67
2022/03/31 11:58:42;;;;;;;1.58;1.15;;;15.90;49.90;;;;;;5061829;28;20067;-67
2022/03/31 12:01:07;;;;;;;2.58;1.60;;;15.90;49.90;;;;;;5061810;28;20024;-67
2022/03/31 12:03:35;;;;;;;1.58;1.40;;;15.90;49.80;;;;;;5061830;28;20059;-67
2022/03/31 12:06:02;;;;;;;1.92;1.45;;;15.90;49.90;;;;;;5061704;28;20044;-66
2022/03/31 12:08:28;;;;;;;1.65;1.55;;;15.90;49.90;;;;;;5061679;28;20029;-66
2022/03/31 12:10:55;;;;;;;1.25;1.15;;;15.90;49.80;;;;;;5061624;28;20025;-67
2022/03/31 12:13:23;;;;;;;2.08;1.40;;;15.90;49.80;;;;;;5060134;28;20225;-66
2022/03/31 12:15:49;;;;;;;1.70;1.40;;;15.90;49.80;;;;;;5061475;28;20316;-67
2022/03/31 12:18:17;;;;;;;2.47;1.50;;;15.90;49.80;;;;;;5061427;28;20017;-67
2022/03/31 12:20:46;;;;;;;1.58;1.48;;;15.90;49.80;;;;;;5061392;28;20040;-67
2022/03/31 12:23:19;;;;;;;2.40;1.25;;;15.90;49.90;;;;;;5061422;28;20052;-66
2022/03/31 12:25:45;;;;;;;2.28;1.27;;;15.90;49.90;;;;;;5061383;28;20080;-67
2022/03/31 12:28:11;;;;;;;1.65;1.30;;;15.90;49.90;;;;;;5061258;28;20280;-66
2022/03/31 12:30:54;;;;;;;1.40;1.30;;;15.90;49.90;;;;;;5061269;28;20033;-66
2022/03/31 12:33:30;;;;;;;2.22;1.30;;;15.90;49.90;;;;;;5061250;28;20256;-67
2022/03/31 12:36:02;;;;;;;1.98;1.42;;;15.90;49.90;;;;;;5061232;28;20025;-66
2022/03/31 12:38:42;;;;;;;2.97;1.48;;;15.90;49.90;;;;;;5060930;28;20376;-66
2022/03/31 12:41:17;;;;;;;2.38;1.70;;;15.90;49.90;;;;;;5061086;28;20039;-66
2022/03/31 12:44:00;;;;;;;1.58;1.48;;;15.90;49.90;;;;;;5061010;28;20100;-68
2022/03/31 12:46:28;;;;;;;2.30;1.33;;;15.90;49.90;;;;;;5061006;28;20036;-67
2022/03/31 12:49:04;;;;;;;1.75;1.50;;;15.90;49.90;;;;;;5061026;28;20048;-66
2022/03/31 12:51:54;;;;;;;1.40;1.30;;;15.90;49.90;;;;;;5059618;28;20028;-68
2022/03/31 12:54:34;;;;;;;2.80;1.50;;;15.90;49.90;;;;;;5060905;28;20017;-68
2022/03/31 12:57:22;;;;;;;1.23;1.00;;;15.90;49.90;;;;;;5060824;28;20084;-67